Time;durP1;ratioP1;P1;durP2;ratioP2;P2;SDS_P1;SDS_P2;PMS_P1;PMS_P2;Temp;Humidity;BMP_temperature;BMP_pressure;BME280_temperature;BME280_humidity;BME280_pressure;Samples;Min_cycle;Max_cycle;Signal;HPM_P1;HPM_P2
2022/08/06 00:01:36;;;;;;;6.18;2.80;;;;;;;;;;5072954;28;20067;-72
2022/08/06 00:04:02;;;;;;;9.45;3.90;;;;;;;;;;5072102;28;20025;-72
2022/08/06 00:06:29;;;;;;;7.40;2.33;;;;;;;;;;5072584;28;20492;-72
2022/08/06 00:08:55;;;;;;;10.15;4.05;;;;;;;;;;5072316;28;20028;-72
2022/08/06 00:11:21;;;;;;;7.63;3.90;;;;;;;;;;5072998;28;20025;-72
2022/08/06 00:13:47;;;;;;;6.28;3.30;;;;;;;;;;5072231;28;20036;-72
2022/08/06 00:16:13;;;;;;;8.27;3.38;;;;;;;;;;5067903;28;20069;-72
2022/08/06 00:18:39;;;;;;;8.23;4.10;;;;;;;;;;5071812;28;20048;-72
2022/08/06 00:21:05;;;;;;;9.75;4.05;;;;;;;;;;5070276;28;20051;-72
2022/08/06 00:23:31;;;;;;;10.50;3.25;;;;;;;;;;5069588;28;20060;-72
2022/08/06 00:25:57;;;;;;;4.95;3.42;;;;;;;;;;5052476;28;20110;-72
2022/08/06 00:28:25;;;;;;;6.13;3.28;;;;;;;;;;5063646;28;20123;-72
2022/08/06 00:30:51;;;;;;;7.60;3.85;;;;;;;;;;5072215;28;20071;-72
2022/08/06 00:33:17;;;;;;;5.80;3.58;;;;;;;;;;5072390;28;20036;-72
2022/08/06 00:35:44;;;;;;;7.45;4.05;;;;;;;;;;5072246;28;20063;-72
2022/08/06 00:38:10;;;;;;;7.35;3.80;;;;;;;;;;5071883;28;20025;-72
2022/08/06 00:40:36;;;;;;;6.57;3.65;;;;;;;;;;5076910;28;20033;-72
2022/08/06 00:43:03;;;;;;;7.75;3.45;;;;;;;;;;5075079;28;20827;-72
2022/08/06 00:45:32;;;;;;;7.70;4.15;;;;;;;;;;5075882;28;20032;-72
2022/08/06 00:47:58;;;;;;;5.93;3.15;;;;;;;;;;5062640;28;20036;-72
2022/08/06 00:50:24;;;;;;;5.18;3.10;;;;;;;;;;5075536;28;20037;-72
2022/08/06 00:52:50;;;;;;;8.10;4.05;;;;;;;;;;5070141;28;20538;-72
2022/08/06 00:55:17;;;;;;;7.57;3.97;;;;;;;;;;5065497;28;20055;-72
2022/08/06 00:57:43;;;;;;;8.27;3.95;;;;;;;;;;5076253;28;20386;-72
2022/08/06 01:00:09;;;;;;;7.22;4.30;;;;;;;;;;5068009;28;20091;-72
2022/08/06 01:02:35;;;;;;;6.47;3.83;;;;;;;;;;5076125;28;20040;-72
2022/08/06 01:05:01;;;;;;;6.80;3.25;;;;;;;;;;5064313;28;20028;-72
2022/08/06 01:07:28;;;;;;;9.00;3.60;;;;;;;;;;5075797;28;20040;-72
2022/08/06 01:09:54;;;;;;;7.28;3.45;;;;;;;;;;5075147;28;20028;-72
2022/08/06 01:12:20;;;;;;;5.32;3.10;;;;;;;;;;5060862;28;20155;-72
2022/08/06 01:14:46;;;;;;;8.05;3.53;;;;;;;;;;5055311;28;20029;-72
2022/08/06 01:17:17;;;;;;;7.38;3.60;;;;;;;;;;5078867;28;20044;-72
2022/08/06 01:20:01;;;;;;;6.70;4.05;;;;;;;;;;5055075;28;20806;-72
2022/08/06 01:22:41;;;;;;;8.10;3.83;;;;;;;;;;5070619;28;20064;-72
2022/08/06 01:25:19;;;;;;;8.23;3.45;;;;;;;;;;5075814;28;20056;-72
2022/08/06 01:28:01;;;;;;;6.28;3.67;;;;;;;;;;5074909;28;20048;-72
2022/08/06 01:30:32;;;;;;;6.10;3.33;;;;;;;;;;5074960;28;20451;-72
2022/08/06 01:33:04;;;;;;;8.55;3.50;;;;;;;;;;5073269;28;20473;-72
2022/08/06 01:35:41;;;;;;;8.20;3.38;;;;;;;;;;5062327;28;20576;-72
2022/08/06 01:38:09;;;;;;;6.72;3.75;;;;;;;;;;5074471;28;20036;-72
2022/08/06 01:40:36;;;;;;;8.77;3.53;;;;;;;;;;5074698;28;20060;-72
2022/08/06 01:43:04;;;;;;;7.85;3.83;;;;;;;;;;5074107;28;20043;-72
2022/08/06 01:45:33;;;;;;;6.65;4.15;;;;;;;;;;5074924;28;20032;-72
2022/08/06 01:47:59;;;;;;;6.65;4.15;;;;;;;;;;5071304;28;20581;-72
2022/08/06 01:50:28;;;;;;;6.88;4.28;;;;;;;;;;5068236;28;20047;-72
2022/08/06 01:52:54;;;;;;;8.75;4.38;;;;;;;;;;5073618;28;20771;-72
2022/08/06 01:55:21;;;;;;;7.18;4.25;;;;;;;;;;5075168;28;20020;-72
2022/08/06 01:57:50;;;;;;;5.35;3.47;;;;;;;;;;5063601;28;20462;-72
2022/08/06 02:00:16;;;;;;;8.43;4.45;;;;;;;;;;5073453;28;20055;-72
2022/08/06 02:02:43;;;;;;;9.32;4.55;;;;;;;;;;5074512;28;20040;-72
2022/08/06 02:05:10;;;;;;;7.75;4.07;;;;;;;;;;5072416;28;20052;-72
2022/08/06 02:07:40;;;;;;;5.45;3.28;;;;;;;;;;5073866;28;20037;-72
2022/08/06 02:10:07;;;;;;;8.23;3.90;;;;;;;;;;5070872;28;20028;-72
2022/08/06 02:12:34;;;;;;;5.72;3.13;;;;;;;;;;5074176;28;20044;-72
2022/08/06 02:15:06;;;;;;;7.53;3.13;;;;;;;;;;5073645;28;20112;-72
2022/08/06 02:17:35;;;;;;;7.68;4.60;;;;;;;;;;5074125;28;20155;-72
2022/08/06 02:20:02;;;;;;;7.45;4.10;;;;;;;;;;5073662;28;20045;-72
2022/08/06 02:22:29;;;;;;;7.40;3.60;;;;;;;;;;5073541;28;20534;-72
2022/08/06 02:24:57;;;;;;;8.43;3.95;;;;;;;;;;5073732;28;20073;-72
2022/08/06 02:27:24;;;;;;;8.73;3.70;;;;;;;;;;5073773;28;20044;-72
2022/08/06 02:29:51;;;;;;;7.15;3.67;;;;;;;;;;5080869;28;20078;-72
2022/08/06 02:32:17;;;;;;;5.38;3.47;;;;;;;;;;5093619;28;20064;-72
2022/08/06 02:34:44;;;;;;;6.78;2.85;;;;;;;;;;5081955;28;20024;-72
2022/08/06 02:37:15;;;;;;;5.80;3.85;;;;;;;;;;5073424;28;20070;-72
2022/08/06 02:40:03;;;;;;;6.95;3.38;;;;;;;;;;5073124;28;20025;-72
2022/08/06 02:42:52;;;;;;;6.07;3.30;;;;;;;;;;5066684;28;20040;-72
2022/08/06 02:45:20;;;;;;;5.43;3.47;;;;;;;;;;5055157;28;20040;-72
2022/08/06 02:47:50;;;;;;;9.63;4.05;;;;;;;;;;5073134;28;20060;-72
2022/08/06 02:50:18;;;;;;;7.10;3.28;;;;;;;;;;5070312;28;20017;-72
2022/08/06 02:52:46;;;;;;;5.88;3.15;;;;;;;;;;5057938;28;20050;-72
2022/08/06 02:55:15;;;;;;;8.02;3.08;;;;;;;;;;5073461;28;20028;-72
2022/08/06 02:57:46;;;;;;;6.05;3.55;;;;;;;;;;5073504;28;20037;-72
2022/08/06 03:00:12;;;;;;;6.93;3.80;;;;;;;;;;5065010;28;20032;-72
2022/08/06 03:02:40;;;;;;;5.55;3.25;;;;;;;;;;5065660;28;20366;-72
2022/08/06 03:05:07;;;;;;;9.35;4.18;;;;;;;;;;5059094;28;20365;-72
2022/08/06 03:07:35;;;;;;;6.03;3.10;;;;;;;;;;5072599;28;20037;-72
2022/08/06 03:10:02;;;;;;;5.68;3.95;;;;;;;;;;5073220;28;20059;-72
2022/08/06 03:12:29;;;;;;;8.18;3.78;;;;;;;;;;5087507;28;20119;-72
2022/08/06 03:14:55;;;;;;;6.35;3.63;;;;;;;;;;5072939;28;20036;-72
2022/08/06 03:17:22;;;;;;;7.68;3.50;;;;;;;;;;5076310;28;20112;-72
2022/08/06 03:19:49;;;;;;;6.05;3.47;;;;;;;;;;5060498;28;20561;-72
2022/08/06 03:22:16;;;;;;;5.85;3.65;;;;;;;;;;5071964;28;20036;-72
2022/08/06 03:24:43;;;;;;;6.55;3.47;;;;;;;;;;5067126;28;20060;-72
2022/08/06 03:27:10;;;;;;;6.28;4.00;;;;;;;;;;5067357;28;20081;-72
2022/08/06 03:29:37;;;;;;;6.63;3.47;;;;;;;;;;5063640;28;20025;-72
2022/08/06 03:32:04;;;;;;;5.80;2.88;;;;;;;;;;5057849;28;20017;-72
2022/08/06 03:34:30;;;;;;;7.22;3.42;;;;;;;;;;5062548;28;20370;-72
2022/08/06 03:36:57;;;;;;;5.45;3.50;;;;;;;;;;5065302;28;20533;-72
2022/08/06 03:39:24;;;;;;;6.80;3.25;;;;;;;;;;5054667;28;20155;-72
2022/08/06 03:41:50;;;;;;;6.60;3.47;;;;;;;;;;5064948;28;20025;-72
2022/08/06 03:44:16;;;;;;;9.85;3.80;;;;;;;;;;5065160;28;20051;-72
2022/08/06 03:46:59;;;;;;;9.15;4.28;;;;;;;;;;5071438;28;20074;-72
2022/08/06 03:49:30;;;;;;;6.90;3.28;;;;;;;;;;5057090;28;20069;-72
2022/08/06 03:51:58;;;;;;;9.77;3.35;;;;;;;;;;5062550;28;20024;-72
2022/08/06 03:54:29;;;;;;;8.32;3.55;;;;;;;;;;5067995;28;20043;-72
2022/08/06 03:56:56;;;;;;;6.47;2.97;;;;;;;;;;5051562;28;20029;-72
2022/08/06 03:59:23;;;;;;;6.55;3.13;;;;;;;;;;5068944;28;20032;-72
2022/08/06 04:01:50;;;;;;;7.15;3.42;;;;;;;;;;5070440;28;20029;-72
2022/08/06 04:04:17;;;;;;;7.18;3.85;;;;;;;;;;5074364;28;20035;-72
2022/08/06 04:06:43;;;;;;;9.82;3.60;;;;;;;;;;5062069;28;20037;-72
2022/08/06 04:09:10;;;;;;;10.48;3.65;;;;;;;;;;5060541;28;20107;-72
2022/08/06 04:11:36;;;;;;;7.63;4.05;;;;;;;;;;5070981;28;20074;-72
2022/08/06 04:14:03;;;;;;;9.15;3.15;;;;;;;;;;5059796;28;20043;-73
2022/08/06 04:16:31;;;;;;;6.50;3.30;;;;;;;;;;5069731;28;20032;-73
2022/08/06 04:18:57;;;;;;;9.48;4.07;;;;;;;;;;5074873;28;20045;-73
2022/08/06 04:21:24;;;;;;;7.85;3.92;;;;;;;;;;5074988;28;20494;-73
2022/08/06 04:23:51;;;;;;;7.07;3.38;;;;;;;;;;5075022;28;20035;-72
2022/08/06 04:26:19;;;;;;;7.25;3.13;;;;;;;;;;5086334;28;20029;-72
2022/08/06 04:28:46;;;;;;;8.02;3.72;;;;;;;;;;5074879;28;20036;-72
2022/08/06 04:31:13;;;;;;;10.52;3.67;;;;;;;;;;5073323;28;20032;-72
2022/08/06 04:33:40;;;;;;;7.50;3.72;;;;;;;;;;5074684;28;20526;-72
2022/08/06 04:36:06;;;;;;;5.88;3.28;;;;;;;;;;5063070;28;20029;-72
2022/08/06 04:38:33;;;;;;;7.35;3.58;;;;;;;;;;5062713;28;20048;-72
2022/08/06 04:40:59;;;;;;;6.28;3.58;;;;;;;;;;5067266;28;20765;-72
2022/08/06 04:43:26;;;;;;;6.32;3.30;;;;;;;;;;5066815;28;20033;-72
2022/08/06 04:45:53;;;;;;;8.25;3.17;;;;;;;;;;5073868;28;20036;-72
2022/08/06 04:48:19;;;;;;;6.10;3.53;;;;;;;;;;5063223;28;20357;-72
2022/08/06 04:50:45;;;;;;;7.95;3.67;;;;;;;;;;5073567;28;20033;-72
2022/08/06 04:53:16;;;;;;;8.85;3.33;;;;;;;;;;5057122;28;20090;-72
2022/08/06 04:55:42;;;;;;;5.78;3.08;;;;;;;;;;5068437;28;20078;-72
2022/08/06 04:58:09;;;;;;;7.18;3.60;;;;;;;;;;5071377;28;20021;-72
2022/08/06 05:00:37;;;;;;;7.78;3.35;;;;;;;;;;5068573;28;20040;-72
2022/08/06 05:03:03;;;;;;;10.63;3.47;;;;;;;;;;5073762;28;20073;-72
2022/08/06 05:05:31;;;;;;;11.30;4.13;;;;;;;;;;5068980;28;20837;-72
2022/08/06 05:07:58;;;;;;;5.85;3.00;;;;;;;;;;5073672;28;20097;-72
2022/08/06 05:10:26;;;;;;;10.45;3.15;;;;;;;;;;5069200;28;20037;-72
2022/08/06 05:12:55;;;;;;;9.00;3.30;;;;;;;;;;5061693;28;20025;-72
2022/08/06 05:15:29;;;;;;;7.07;3.67;;;;;;;;;;5067605;28;20033;-72
2022/08/06 05:18:09;;;;;;;8.07;3.00;;;;;;;;;;5053298;28;20017;-72
2022/08/06 05:20:38;;;;;;;5.78;3.30;;;;;;;;;;5058311;28;20049;-72
2022/08/06 05:23:11;;;;;;;10.10;3.80;;;;;;;;;;5073394;28;20032;-72
2022/08/06 05:25:37;;;;;;;7.68;3.42;;;;;;;;;;5071366;28;20119;-72
2022/08/06 05:28:05;;;;;;;13.52;2.88;;;;;;;;;;5053338;28;20029;-72
2022/08/06 05:30:31;;;;;;;6.95;4.05;;;;;;;;;;5064205;28;20477;-72
2022/08/06 05:33:01;;;;;;;9.07;4.28;;;;;;;;;;5069367;28;20071;-72
2022/08/06 05:35:27;;;;;;;9.60;4.07;;;;;;;;;;5073008;28;20028;-72
2022/08/06 05:37:53;;;;;;;9.50;3.85;;;;;;;;;;5061637;28;20029;-72
2022/08/06 05:40:19;;;;;;;5.45;3.80;;;;;;;;;;5072779;28;20036;-72
2022/08/06 05:42:44;;;;;;;5.65;3.72;;;;;;;;;;5071527;28;20500;-72
2022/08/06 05:45:11;;;;;;;9.85;4.20;;;;;;;;;;5062336;28;20039;-72
2022/08/06 05:47:39;;;;;;;7.68;4.30;;;;;;;;;;5062470;28;20074;-72
2022/08/06 05:50:07;;;;;;;10.75;4.55;;;;;;;;;;5072313;28;20573;-72
2022/08/06 05:52:52;;;;;;;6.35;4.00;;;;;;;;;;5069661;28;20080;-72
2022/08/06 05:55:44;;;;;;;4.75;2.85;;;;;;;;;;5066960;28;20032;-72
2022/08/06 05:58:10;;;;;;;;;;;;;;;;;;5065668;28;20072;-72
2022/08/06 06:00:36;;;;;;;5.03;2.47;;;;;;;;;;5059455;28;19948;-72
2022/08/06 06:03:04;;;;;;;10.40;2.70;;;;;;;;;;5064267;28;20123;-73
2022/08/06 06:05:31;;;;;;;6.38;2.42;;;;;;;;;;5067912;28;20300;-72
2022/08/06 06:07:57;;;;;;;7.75;2.40;;;;;;;;;;5052199;28;20033;-72
2022/08/06 06:10:24;;;;;;;4.93;2.35;;;;;;;;;;5054195;28;20029;-72
2022/08/06 06:12:50;;;;;;;7.15;3.20;;;;;;;;;;5063305;28;20029;-72
2022/08/06 06:15:17;;;;;;;10.68;3.30;;;;;;;;;;5061383;28;20104;-72
2022/08/06 06:17:52;;;;;;;5.55;3.33;;;;;;;;;;5067828;28;20078;-72
2022/08/06 06:20:38;;;;;;;6.13;3.13;;;;;;;;;;5066603;28;20052;-72
2022/08/06 06:23:08;;;;;;;4.03;2.45;;;;;;;;;;5029109;28;20060;-72
2022/08/06 06:25:38;;;;;;;6.75;2.72;;;;;;;;;;5062784;28;20045;-72
2022/08/06 06:28:19;;;;;;;5.65;2.40;;;;;;;;;;5065602;28;20032;-72
2022/08/06 06:31:05;;;;;;;9.90;2.90;;;;;;;;;;5069572;28;20037;-73
2022/08/06 06:33:31;;;;;;;5.97;2.72;;;;;;;;;;5063465;28;20031;-73
2022/08/06 06:35:58;;;;;;;5.90;3.05;;;;;;;;;;5068345;28;20025;-73
2022/08/06 06:38:47;;;;;;;5.45;2.30;;;;;;;;;;5060089;28;20033;-73
2022/08/06 06:41:26;;;;;;;5.00;2.22;;;;;;;;;;5058087;28;20045;-73
2022/08/06 06:43:51;;;;;;;6.05;2.42;;;;;;;;;;5062416;28;20164;-74
2022/08/06 06:46:36;;;;;;;4.28;2.05;;;;;;;;;;5065917;28;20502;-73
2022/08/06 06:49:07;;;;;;;4.53;2.30;;;;;;;;;;5067175;28;20032;-73
2022/08/06 06:51:42;;;;;;;6.17;2.27;;;;;;;;;;5064593;28;20025;-73
2022/08/06 06:54:10;;;;;;;3.90;2.28;;;;;;;;;;5071678;28;20339;-73
2022/08/06 06:56:40;;;;;;;5.50;2.28;;;;;;;;;;5073329;28;20029;-73
2022/08/06 06:59:13;;;;;;;4.15;2.00;;;;;;;;;;5069025;28;20441;-73
2022/08/06 07:01:39;;;;;;;4.00;2.13;;;;;;;;;;5073899;28;20086;-73
2022/08/06 07:04:08;;;;;;;4.22;2.35;;;;;;;;;;5060050;28;20029;-73
2022/08/06 07:06:35;;;;;;;4.55;2.60;;;;;;;;;;5071179;28;20032;-73
2022/08/06 07:09:02;;;;;;;4.25;1.88;;;;;;;;;;5081744;28;20036;-73
2022/08/06 07:11:29;;;;;;;5.75;1.90;;;;;;;;;;5062524;28;20032;-73
2022/08/06 07:13:57;;;;;;;6.60;2.13;;;;;;;;;;5071197;28;20036;-73
2022/08/06 07:16:24;;;;;;;5.32;2.20;;;;;;;;;;5067969;28;20037;-73
2022/08/06 07:18:52;;;;;;;4.35;2.65;;;;;;;;;;5070479;28;20048;-73
2022/08/06 07:21:19;;;;;;;4.07;2.00;;;;;;;;;;5068276;28;20040;-73
2022/08/06 07:23:46;;;;;;;9.25;2.28;;;;;;;;;;5054889;28;20404;-73
2022/08/06 07:26:17;;;;;;;5.03;2.35;;;;;;;;;;5063582;28;20442;-73
2022/08/06 07:28:43;;;;;;;6.13;2.30;;;;;;;;;;5067643;28;20077;-73
2022/08/06 07:31:10;;;;;;;8.50;1.92;;;;;;;;;;5068304;28;20040;-73
2022/08/06 07:33:39;;;;;;;4.15;1.92;;;;;;;;;;5060000;28;20398;-73
2022/08/06 07:36:06;;;;;;;5.80;2.22;;;;;;;;;;5060586;28;20137;-74
2022/08/06 07:38:33;;;;;;;5.60;1.90;;;;;;;;;;5069364;28;20028;-73
2022/08/06 07:41:01;;;;;;;3.47;1.95;;;;;;;;;;5056002;28;20048;-73
2022/08/06 07:43:30;;;;;;;4.70;1.80;;;;;;;;;;5069750;28;20577;-73
2022/08/06 07:45:59;;;;;;;4.00;2.20;;;;;;;;;;5065369;28;20033;-73
2022/08/06 07:48:54;;;;;;;7.78;2.72;;;;;;;;;;5064047;28;20442;-73
2022/08/06 07:51:33;;;;;;;7.07;2.38;;;;;;;;;;5050139;28;20746;-73
2022/08/06 07:53:59;;;;;;;5.88;2.50;;;;;;;;;;5056893;28;20401;-73
2022/08/06 07:56:26;;;;;;;8.77;2.30;;;;;;;;;;5057976;28;20644;-73
2022/08/06 07:58:53;;;;;;;5.78;2.40;;;;;;;;;;5067023;28;20462;-73
2022/08/06 08:01:19;;;;;;;4.65;2.00;;;;;;;;;;5066372;28;20041;-73
2022/08/06 08:06:31;;;;;;;5.72;2.42;;;;;;;;;;5058699;28;20406;-73
2022/08/06 08:09:24;;;;;;;5.82;3.03;;;;;;;;;;5054200;28;20367;-73
2022/08/06 08:11:50;;;;;;;4.45;2.13;;;;;;;;;;5056259;28;20106;-73
2022/08/06 08:14:18;;;;;;;4.35;2.25;;;;;;;;;;5070185;28;20158;-73
2022/08/06 08:16:44;;;;;;;8.23;2.40;;;;;;;;;;5070230;28;20040;-73
2022/08/06 08:19:23;;;;;;;5.63;2.25;;;;;;;;;;5061499;28;20040;-73
2022/08/06 08:21:53;;;;;;;6.20;1.90;;;;;;;;;;5069370;28;20166;-73
2022/08/06 08:24:19;;;;;;;5.20;1.90;;;;;;;;;;5070493;28;20467;-73
2022/08/06 08:26:45;;;;;;;4.32;2.38;;;;;;;;;;5063887;28;20032;-73
2022/08/06 08:29:12;;;;;;;4.60;2.00;;;;;;;;;;5068975;28;20025;-73
2022/08/06 08:31:38;;;;;;;3.88;2.42;;;;;;;;;;5066555;28;20041;-73
2022/08/06 08:34:05;;;;;;;3.80;2.05;;;;;;;;;;5066589;28;20476;-73
2022/08/06 08:36:31;;;;;;;8.00;2.25;;;;;;;;;;5064345;28;20116;-73
2022/08/06 08:38:57;;;;;;;5.55;1.67;;;;;;;;;;5070264;28;20132;-73
2022/08/06 08:41:26;;;;;;;5.70;2.20;;;;;;;;;;5072807;28;20405;-73
2022/08/06 08:44:11;;;;;;;6.50;2.35;;;;;;;;;;5068839;28;20479;-73
2022/08/06 08:46:41;;;;;;;5.13;1.73;;;;;;;;;;5059668;28;20029;-73
2022/08/06 08:49:08;;;;;;;6.57;2.33;;;;;;;;;;5066646;28;20462;-73
2022/08/06 08:51:35;;;;;;;4.93;2.20;;;;;;;;;;5061082;28;20090;-73
2022/08/06 08:54:02;;;;;;;4.78;2.70;;;;;;;;;;5060824;28;20028;-73
2022/08/06 08:56:29;;;;;;;5.40;2.55;;;;;;;;;;5069554;28;20039;-73
2022/08/06 08:58:55;;;;;;;6.22;2.28;;;;;;;;;;5064909;28;20033;-73
2022/08/06 09:01:21;;;;;;;4.25;2.33;;;;;;;;;;5068795;28;20060;-73
2022/08/06 09:03:48;;;;;;;5.53;2.28;;;;;;;;;;5061521;28;20070;-73
2022/08/06 09:06:14;;;;;;;6.22;3.38;;;;;;;;;;5065885;28;20501;-73
2022/08/06 09:08:40;;;;;;;5.88;2.88;;;;;;;;;;5065020;28;20470;-73
2022/08/06 09:11:06;;;;;;;4.85;2.63;;;;;;;;;;5065385;28;20025;-73
2022/08/06 09:13:32;;;;;;;5.53;2.72;;;;;;;;;;5072653;28;20067;-73
2022/08/06 09:15:58;;;;;;;7.32;2.67;;;;;;;;;;5067548;28;20071;-73
2022/08/06 09:18:25;;;;;;;4.85;3.35;;;;;;;;;;5072201;28;20100;-73
2022/08/06 09:20:51;;;;;;;5.80;3.22;;;;;;;;;;5061797;28;20044;-73
2022/08/06 09:23:18;;;;;;;7.47;3.60;;;;;;;;;;5069994;28;20541;-73
2022/08/06 09:25:46;;;;;;;6.60;2.80;;;;;;;;;;5062271;28;20036;-73
2022/08/06 09:28:27;;;;;;;6.80;3.30;;;;;;;;;;5071258;28;20123;-73
2022/08/06 09:31:01;;;;;;;8.23;3.03;;;;;;;;;;5079796;28;20043;-72
2022/08/06 09:33:27;;;;;;;5.22;3.03;;;;;;;;;;5072049;28;20033;-72
2022/08/06 09:35:58;;;;;;;5.70;2.78;;;;;;;;;;5064414;28;20029;-73
2022/08/06 09:38:24;;;;;;;3.83;2.55;;;;;;;;;;5071508;28;20082;-73
2022/08/06 09:41:07;;;;;;;5.45;2.88;;;;;;;;;;5070736;28;20478;-73
2022/08/06 09:43:33;;;;;;;6.88;2.47;;;;;;;;;;5065964;28;20028;-73
2022/08/06 09:45:59;;;;;;;7.78;3.20;;;;;;;;;;5066758;28;20082;-73
2022/08/06 09:48:25;;;;;;;5.97;2.90;;;;;;;;;;5053580;28;20032;-73
2022/08/06 09:50:51;;;;;;;4.03;2.70;;;;;;;;;;5072331;28;20035;-73
2022/08/06 09:53:22;;;;;;;3.47;2.20;;;;;;;;;;5071117;28;20028;-73
2022/08/06 09:55:49;;;;;;;7.00;2.88;;;;;;;;;;5060855;28;20033;-73
2022/08/06 09:58:26;;;;;;;3.85;2.30;;;;;;;;;;5067092;28;20024;-73
2022/08/06 10:00:52;;;;;;;5.40;2.60;;;;;;;;;;5064590;28;20071;-73
2022/08/06 10:03:18;;;;;;;5.82;2.75;;;;;;;;;;5060647;28;20806;-73
2022/08/06 10:05:44;;;;;;;5.38;2.60;;;;;;;;;;5069710;28;20072;-73
2022/08/06 10:08:10;;;;;;;4.80;2.65;;;;;;;;;;5063467;28;20055;-73
2022/08/06 10:10:47;;;;;;;5.82;2.33;;;;;;;;;;5066917;28;20488;-73
2022/08/06 10:13:16;;;;;;;6.30;3.10;;;;;;;;;;5068254;28;20351;-73
2022/08/06 10:15:44;;;;;;;4.93;2.80;;;;;;;;;;5065290;28;20036;-73
2022/08/06 10:18:10;;;;;;;5.03;2.25;;;;;;;;;;5061028;28;20025;-73
2022/08/06 10:20:36;;;;;;;5.05;2.80;;;;;;;;;;5061877;28;20072;-73
2022/08/06 10:23:02;;;;;;;5.57;2.63;;;;;;;;;;5078867;28;20032;-73
2022/08/06 10:25:29;;;;;;;5.22;2.78;;;;;;;;;;5069438;28;20044;-73
2022/08/06 10:27:56;;;;;;;4.53;2.45;;;;;;;;;;5071400;28;20033;-73
2022/08/06 10:30:22;;;;;;;5.15;2.60;;;;;;;;;;5065482;28;20111;-73
2022/08/06 10:33:01;;;;;;;4.47;2.90;;;;;;;;;;5074482;28;20059;-74
2022/08/06 10:35:27;;;;;;;3.65;2.20;;;;;;;;;;5066229;28;20028;-73
2022/08/06 10:37:56;;;;;;;6.22;2.90;;;;;;;;;;5065766;28;20028;-73
2022/08/06 10:40:23;;;;;;;6.80;2.58;;;;;;;;;;5070609;28;20048;-73
2022/08/06 10:42:50;;;;;;;5.35;2.22;;;;;;;;;;5069535;28;20050;-73
2022/08/06 10:45:16;;;;;;;7.03;2.53;;;;;;;;;;5069794;28;20400;-73
2022/08/06 10:47:44;;;;;;;5.95;2.10;;;;;;;;;;5070039;28;20470;-73
2022/08/06 10:50:12;;;;;;;6.07;2.65;;;;;;;;;;5058710;28;20447;-74
2022/08/06 10:52:38;;;;;;;3.25;2.15;;;;;;;;;;5061863;28;20074;-73
2022/08/06 10:55:05;;;;;;;4.18;2.25;;;;;;;;;;5062031;28;20549;-73
2022/08/06 10:57:32;;;;;;;5.40;2.70;;;;;;;;;;5072916;28;20024;-73
2022/08/06 10:59:59;;;;;;;5.03;2.45;;;;;;;;;;5063638;28;20052;-73
2022/08/06 11:02:44;;;;;;;4.88;2.58;;;;;;;;;;5066792;28;20488;-73
2022/08/06 11:05:12;;;;;;;4.43;2.28;;;;;;;;;;5068058;28;20037;-73
2022/08/06 11:07:44;;;;;;;4.60;2.33;;;;;;;;;;5069967;28;20040;-73
2022/08/06 11:10:32;;;;;;;7.25;2.50;;;;;;;;;;5068450;28;20056;-73
2022/08/06 11:13:01;;;;;;;5.72;2.47;;;;;;;;;;5068959;28;20046;-73
2022/08/06 11:15:27;;;;;;;6.55;3.00;;;;;;;;;;5063753;28;20036;-73
2022/08/06 11:18:06;;;;;;;5.03;2.47;;;;;;;;;;5064640;28;20038;-73
2022/08/06 11:20:32;;;;;;;5.97;2.47;;;;;;;;;;5063341;28;20053;-73
2022/08/06 11:22:59;;;;;;;4.25;2.42;;;;;;;;;;5065331;28;20032;-73
2022/08/06 11:25:38;;;;;;;6.05;2.45;;;;;;;;;;5064916;28;20047;-73
2022/08/06 11:28:04;;;;;;;5.90;2.38;;;;;;;;;;5061833;28;20044;-73
2022/08/06 11:30:42;;;;;;;5.47;2.20;;;;;;;;;;5057882;28;20056;-73
2022/08/06 11:33:08;;;;;;;5.20;2.30;;;;;;;;;;5060963;28;20032;-73
2022/08/06 11:35:34;;;;;;;4.60;2.33;;;;;;;;;;5069519;28;20028;-73
2022/08/06 11:38:27;;;;;;;5.22;2.60;;;;;;;;;;5066316;28;20497;-73
2022/08/06 11:41:00;;;;;;;4.40;2.20;;;;;;;;;;5041867;28;20049;-73
2022/08/06 11:43:46;;;;;;;3.97;2.50;;;;;;;;;;5059965;28;20036;-73
2022/08/06 11:46:23;;;;;;;4.32;2.10;;;;;;;;;;5063096;28;20043;-73
2022/08/06 11:49:03;;;;;;;5.28;2.28;;;;;;;;;;5066785;28;20037;-73
2022/08/06 11:51:48;;;;;;;4.95;2.30;;;;;;;;;;5064809;28;20024;-74
2022/08/06 11:54:14;;;;;;;3.80;2.10;;;;;;;;;;5066607;28;20032;-73
2022/08/06 11:57:04;;;;;;;4.07;2.20;;;;;;;;;;5067679;28;20029;-73
2022/08/06 11:59:37;;;;;;;3.90;2.00;;;;;;;;;;5056897;28;20067;-73
2022/08/06 12:02:04;;;;;;;4.35;2.15;;;;;;;;;;5059999;28;20032;-73
2022/08/06 12:04:36;;;;;;;15.75;2.40;;;;;;;;;;5058797;28;20033;-73
2022/08/06 12:07:15;;;;;;;6.40;2.00;;;;;;;;;;5067523;28;20029;-73
2022/08/06 12:09:41;;;;;;;4.63;2.33;;;;;;;;;;5065892;28;20104;-73
2022/08/06 12:12:28;;;;;;;5.60;2.50;;;;;;;;;;5062108;28;20044;-73
2022/08/06 12:14:56;;;;;;;8.73;2.63;;;;;;;;;;5060911;28;20028;-73
2022/08/06 12:17:22;;;;;;;3.17;1.60;;;;;;;;;;5078117;28;20031;-73
2022/08/06 12:19:51;;;;;;;4.32;1.90;;;;;;;;;;5060792;28;20045;-73
2022/08/06 12:22:19;;;;;;;4.38;1.85;;;;;;;;;;5062753;28;20037;-73
2022/08/06 12:24:46;;;;;;;7.82;2.03;;;;;;;;;;5059158;28;20037;-73
2022/08/06 12:27:13;;;;;;;4.65;1.70;;;;;;;;;;5060302;28;20470;-73
2022/08/06 12:29:40;;;;;;;4.50;1.83;;;;;;;;;;5055276;28;20461;-73
2022/08/06 12:32:21;;;;;;;3.05;1.80;;;;;;;;;;5066581;28;20017;-73
2022/08/06 12:34:48;;;;;;;3.75;2.00;;;;;;;;;;5063479;28;20083;-74
2022/08/06 12:37:14;;;;;;;3.55;2.00;;;;;;;;;;5068414;28;20029;-73
2022/08/06 12:42:26;;;;;;;5.43;2.10;;;;;;;;;;5056980;28;20068;-73
2022/08/06 12:44:52;;;;;;;6.50;2.30;;;;;;;;;;5066762;28;20025;-73
2022/08/06 12:47:19;;;;;;;3.80;2.15;;;;;;;;;;5072709;28;20033;-73
2022/08/06 12:49:45;;;;;;;5.30;1.88;;;;;;;;;;5060704;28;20107;-73
2022/08/06 12:52:12;;;;;;;5.45;2.08;;;;;;;;;;5066057;28;20031;-73
2022/08/06 12:54:38;;;;;;;4.95;2.00;;;;;;;;;;5067826;28;20108;-73
2022/08/06 12:57:04;;;;;;;4.85;2.00;;;;;;;;;;5056620;28;20029;-73
2022/08/06 12:59:31;;;;;;;3.72;2.20;;;;;;;;;;5067436;28;20769;-73
2022/08/06 13:01:57;;;;;;;7.15;2.70;;;;;;;;;;5065189;28;20013;-73
2022/08/06 13:04:24;;;;;;;4.80;1.90;;;;;;;;;;5068981;28;20127;-74
2022/08/06 13:06:50;;;;;;;3.13;1.60;;;;;;;;;;5060942;28;20029;-73
2022/08/06 13:09:18;;;;;;;3.50;1.85;;;;;;;;;;5070980;28;20681;-73
2022/08/06 13:11:45;;;;;;;5.45;1.88;;;;;;;;;;5057619;28;20032;-73
2022/08/06 13:14:12;;;;;;;4.72;2.30;;;;;;;;;;5065384;28;20032;-73
2022/08/06 13:16:39;;;;;;;4.22;2.00;;;;;;;;;;5061578;28;20047;-73
2022/08/06 13:19:07;;;;;;;3.08;1.95;;;;;;;;;;5068674;28;20052;-73
2022/08/06 13:21:35;;;;;;;3.90;2.00;;;;;;;;;;5059226;28;20062;-73
2022/08/06 13:24:02;;;;;;;3.53;2.00;;;;;;;;;;5071163;28;20438;-73
2022/08/06 13:26:29;;;;;;;3.30;2.10;;;;;;;;;;5064519;28;20470;-73
2022/08/06 13:29:08;;;;;;;4.18;1.92;;;;;;;;;;5067133;28;20051;-73
2022/08/06 13:31:35;;;;;;;3.85;2.13;;;;;;;;;;5065441;28;20037;-73
2022/08/06 13:34:05;;;;;;;3.30;1.90;;;;;;;;;;5070156;28;20825;-73
2022/08/06 13:36:31;;;;;;;3.80;2.10;;;;;;;;;;5063149;28;20094;-73
2022/08/06 13:38:59;;;;;;;5.25;2.20;;;;;;;;;;5067782;28;20462;-73
2022/08/06 13:41:31;;;;;;;5.28;2.78;;;;;;;;;;5071145;28;20393;-73
2022/08/06 13:43:57;;;;;;;4.25;2.00;;;;;;;;;;5061570;28;20380;-73
2022/08/06 13:46:25;;;;;;;4.75;2.20;;;;;;;;;;5063976;28;20131;-73
2022/08/06 13:48:52;;;;;;;4.68;2.10;;;;;;;;;;5061079;28;20040;-73
2022/08/06 13:51:18;;;;;;;6.97;2.97;;;;;;;;;;5066641;28;20036;-73
2022/08/06 13:53:45;;;;;;;4.90;2.25;;;;;;;;;;5068826;28;20047;-73
2022/08/06 13:56:11;;;;;;;4.60;2.45;;;;;;;;;;5067439;28;20028;-73
2022/08/06 13:58:37;;;;;;;6.28;2.28;;;;;;;;;;5068961;28;20068;-73
2022/08/06 14:01:03;;;;;;;4.55;2.20;;;;;;;;;;5066366;28;20061;-73
2022/08/06 14:03:29;;;;;;;6.00;2.10;;;;;;;;;;5063713;28;20523;-73
2022/08/06 14:05:55;;;;;;;5.32;2.20;;;;;;;;;;5053637;28;20033;-73
2022/08/06 14:08:21;;;;;;;3.92;2.03;;;;;;;;;;5062283;28;20032;-73
2022/08/06 14:10:47;;;;;;;4.40;2.42;;;;;;;;;;5071037;28;20029;-73
2022/08/06 14:13:16;;;;;;;6.18;2.60;;;;;;;;;;5065253;28;20032;-73
2022/08/06 14:15:43;;;;;;;3.67;2.13;;;;;;;;;;5067840;28;20032;-73
2022/08/06 14:18:09;;;;;;;6.85;2.42;;;;;;;;;;5065123;28;20028;-73
2022/08/06 14:20:35;;;;;;;4.10;2.15;;;;;;;;;;5070596;28;20802;-73
2022/08/06 14:23:01;;;;;;;5.97;2.35;;;;;;;;;;5069558;28;20033;-73
2022/08/06 14:25:27;;;;;;;4.93;2.33;;;;;;;;;;5064628;28;20032;-73
2022/08/06 14:27:54;;;;;;;5.53;2.45;;;;;;;;;;5067630;28;20028;-73
2022/08/06 14:30:20;;;;;;;4.88;2.00;;;;;;;;;;5069667;28;20025;-73
2022/08/06 14:32:47;;;;;;;3.33;2.00;;;;;;;;;;5068603;28;20557;-73
2022/08/06 14:35:13;;;;;;;5.00;1.83;;;;;;;;;;5064500;28;20428;-73
2022/08/06 14:37:42;;;;;;;6.43;2.22;;;;;;;;;;5071292;28;20063;-73
2022/08/06 14:40:09;;;;;;;4.95;2.45;;;;;;;;;;5068523;28;20385;-73
2022/08/06 14:45:20;;;;;;;6.13;2.25;;;;;;;;;;5061650;28;20081;-73
2022/08/06 14:47:46;;;;;;;5.75;2.50;;;;;;;;;;5069401;28;20057;-74
2022/08/06 14:50:12;;;;;;;5.68;2.20;;;;;;;;;;5061115;28;20023;-74
2022/08/06 14:52:40;;;;;;;5.82;2.15;;;;;;;;;;5061320;28;20104;-74
2022/08/06 14:55:07;;;;;;;5.95;2.65;;;;;;;;;;5052674;28;20025;-74
2022/08/06 14:57:33;;;;;;;4.65;2.20;;;;;;;;;;5062442;28;20040;-74
2022/08/06 14:59:59;;;;;;;6.72;2.47;;;;;;;;;;5057775;28;20764;-74
2022/08/06 15:02:25;;;;;;;4.75;2.42;;;;;;;;;;5063582;28;20048;-73